createdAt,value
2022-12-25T00:04:16.994Z,1010.16
2022-12-25T00:10:45.156Z,1010.16
2022-12-25T00:17:00.052Z,1010.14
2022-12-25T00:23:23.043Z,1010.18
2022-12-25T00:29:42.999Z,1010.24
2022-12-25T00:36:06.046Z,1010.24
2022-12-25T00:42:25.982Z,1010.18
2022-12-25T00:48:49.020Z,1010.2
2022-12-25T00:55:09.014Z,1010.22
2022-12-25T01:01:32.097Z,1010.25
2022-12-25T01:07:51.979Z,1010.27
2022-12-25T01:14:15.055Z,1010.22
2022-12-25T01:20:34.975Z,1010.24
2022-12-25T01:26:58.008Z,1010.27
2022-12-25T01:33:18.009Z,1010.29
2022-12-25T01:39:41.008Z,1010.2
2022-12-25T01:46:01.016Z,1010.24
2022-12-25T01:52:24.629Z,1010.22
2022-12-25T01:58:43.969Z,1010.25
2022-12-25T02:05:07.035Z,1010.24
2022-12-25T02:11:27.017Z,1010.24
2022-12-25T02:17:49.995Z,1010.29
2022-12-25T02:24:10.000Z,1010.31
2022-12-25T02:30:33.032Z,1010.33
2022-12-25T02:36:52.990Z,1010.45
2022-12-25T02:43:16.018Z,1010.43
2022-12-25T02:49:36.122Z,1010.41
2022-12-25T02:55:59.011Z,1010.39
2022-12-25T03:02:19.069Z,1010.31
2022-12-25T03:08:42.056Z,1010.31
2022-12-25T03:15:01.997Z,1010.31
2022-12-25T03:21:25.050Z,1010.33
2022-12-25T03:27:45.050Z,1010.29
2022-12-25T03:34:08.028Z,1010.22
2022-12-25T03:40:27.988Z,1010.18
2022-12-25T03:46:51.053Z,1010.1
2022-12-25T03:53:10.983Z,1010
2022-12-25T03:59:33.989Z,1009.9
2022-12-25T04:05:54.001Z,1009.8
2022-12-25T04:12:17.112Z,1009.69
2022-12-25T04:18:37.030Z,1009.73
2022-12-25T04:25:00.014Z,1009.71
2022-12-25T04:47:46.014Z,1009.92
2022-12-25T04:54:09.021Z,1009.98
2022-12-25T05:00:28.996Z,1009.96
2022-12-25T05:06:52.057Z,1009.88
2022-12-25T05:13:12.031Z,1009.86
2022-12-25T05:19:34.984Z,1009.77
2022-12-25T05:25:55.040Z,1009.63
2022-12-25T05:32:18.006Z,1009.57
2022-12-25T05:38:37.978Z,1009.55
2022-12-25T05:45:01.024Z,1009.49
2022-12-25T05:51:20.972Z,1009.35
2022-12-25T05:57:44.030Z,1009.22
2022-12-25T06:04:08.506Z,1009.18
2022-12-25T06:10:26.974Z,1009.22
2022-12-25T06:16:47.077Z,1009.16
2022-12-25T06:23:10.048Z,1009.1
2022-12-25T06:29:29.991Z,1009.1
2022-12-25T06:35:53.001Z,1009.04
2022-12-25T06:42:13.016Z,1008.94
2022-12-25T06:48:35.995Z,1008.81
2022-12-25T06:54:55.997Z,1008.71
2022-12-25T07:01:19.128Z,1008.59
2022-12-25T07:07:39.010Z,1008.61
2022-12-25T07:14:02.013Z,1008.41
2022-12-25T07:20:22.037Z,1008.28
2022-12-25T07:26:44.973Z,1008.12
2022-12-25T07:33:05.014Z,1008.16
2022-12-25T07:39:28.046Z,1008.16
2022-12-25T07:45:48.013Z,1008.12
2022-12-25T07:52:11.016Z,1008.18
2022-12-25T07:58:31.020Z,1008.3
2022-12-25T08:04:54.000Z,1008.43
2022-12-25T08:11:14.002Z,1008.39
2022-12-25T08:17:37.000Z,1008.26
2022-12-25T08:23:57.007Z,1008.12
2022-12-25T08:30:20.004Z,1008.18
2022-12-25T08:36:40.008Z,1008.2
2022-12-25T08:43:03.009Z,1008.1
2022-12-25T08:49:22.985Z,1007.88
2022-12-25T08:55:46.021Z,1007.82
2022-12-25T09:02:06.095Z,1007.84
2022-12-25T09:08:28.981Z,1007.88
2022-12-25T09:14:49.063Z,1007.84
2022-12-25T09:21:12.011Z,1007.78
2022-12-25T09:27:31.993Z,1007.64
2022-12-25T09:33:55.039Z,1007.56
2022-12-25T09:40:14.989Z,1007.56
2022-12-25T09:46:38.069Z,1007.54
2022-12-25T10:03:48.041Z,1007.64
2022-12-25T10:10:10.985Z,1007.76
2022-12-25T10:16:31.036Z,1007.92
2022-12-25T10:22:54.026Z,1007.98
2022-12-25T10:29:14.013Z,1007.92
2022-12-25T10:35:37.023Z,1007.82
2022-12-25T10:41:57.011Z,1007.72
2022-12-25T10:48:20.002Z,1007.58
2022-12-25T10:54:40.152Z,1007.45
2022-12-25T11:01:03.265Z,1007.33
2022-12-25T11:07:23.240Z,1007.27
2022-12-25T11:13:46.036Z,1007.15
2022-12-25T11:20:06.021Z,1006.98
2022-12-25T11:26:28.989Z,1006.74
2022-12-25T11:32:49.013Z,1006.53
2022-12-25T11:39:12.016Z,1006.45
2022-12-25T11:45:32.040Z,1006.25
2022-12-25T11:51:55.009Z,1006.06
2022-12-25T11:58:15.041Z,1005.9
2022-12-25T12:04:42.532Z,1005.76
2022-12-25T12:10:58.001Z,1005.72
2022-12-25T12:17:21.021Z,1005.65
2022-12-25T12:23:42.024Z,1005.55
2022-12-25T12:30:05.054Z,1005.53
2022-12-25T12:36:34.681Z,1005.38
2022-12-25T12:42:48.011Z,1005.51
2022-12-25T12:49:08.018Z,1005.53
2022-12-25T12:55:31.021Z,1005.51
2022-12-25T13:01:51.253Z,1005.36
2022-12-25T13:08:13.995Z,1005.31
2022-12-25T13:14:34.016Z,1005.25
2022-12-25T13:20:56.998Z,1005.23
2022-12-25T13:27:17.021Z,1005.21
2022-12-25T13:33:40.024Z,1005.13
2022-12-25T13:40:00.021Z,1005.13
2022-12-25T13:46:23.040Z,1005.11
2022-12-25T13:52:43.010Z,1005.17
2022-12-25T13:59:05.996Z,1005.21
2022-12-25T14:05:26.001Z,1005.15
2022-12-25T14:11:49.002Z,1005.11
2022-12-25T14:18:08.989Z,1005.09
2022-12-25T14:24:32.013Z,1005.15
2022-12-25T14:30:52.048Z,1005.17
2022-12-25T14:37:14.978Z,1005.17
2022-12-25T14:43:35.016Z,1005.15
2022-12-25T14:49:58.023Z,1005.09
2022-12-25T14:56:20.023Z,1005.09
2022-12-25T15:02:41.218Z,1005.07
2022-12-25T15:25:46.518Z,1004.9
2022-12-25T15:32:05.975Z,1004.9
2022-12-25T15:38:28.989Z,1004.9
2022-12-25T15:44:49.016Z,1004.78
2022-12-25T15:51:12.000Z,1004.76
2022-12-25T15:57:32.013Z,1004.66
2022-12-25T16:03:55.049Z,1004.62
2022-12-25T16:10:15.006Z,1004.7
2022-12-25T16:16:38.100Z,1004.62
2022-12-25T16:22:58.009Z,1004.64
2022-12-25T16:29:21.028Z,1004.62
2022-12-25T16:35:40.993Z,1004.66
2022-12-25T16:42:04.015Z,1004.58
2022-12-25T16:48:23.999Z,1004.62
2022-12-25T16:54:47.002Z,1004.72
2022-12-25T17:01:07.016Z,1004.7
2022-12-25T17:07:30.010Z,1004.74
2022-12-25T17:13:49.996Z,1004.78
2022-12-25T17:20:13.011Z,1004.7
2022-12-25T17:26:33.035Z,1004.7
2022-12-25T17:32:56.000Z,1004.66
2022-12-25T17:39:15.998Z,1004.66
2022-12-25T17:45:39.005Z,1004.66
2022-12-25T17:51:58.998Z,1004.66
2022-12-25T17:58:22.023Z,1004.6
2022-12-25T18:04:41.981Z,1004.5
2022-12-25T18:11:04.993Z,1004.47
2022-12-25T18:17:25.000Z,1004.43
2022-12-25T18:23:48.023Z,1004.43
2022-12-25T18:30:07.975Z,1004.29
2022-12-25T18:36:31.049Z,1004.29
2022-12-25T18:42:50.987Z,1004.21
2022-12-25T18:49:14.014Z,1004.15
2022-12-25T18:55:34.014Z,1004.11
2022-12-25T19:01:57.127Z,1004.05
2022-12-25T19:08:16.991Z,1003.94
2022-12-25T19:14:46.960Z,1003.94
2022-12-25T19:20:59.977Z,1003.94
2022-12-25T19:27:23.014Z,1004.01
2022-12-25T19:33:43.027Z,1004.07
2022-12-25T19:40:06.028Z,1004.13
2022-12-25T19:46:26.088Z,1004.17
2022-12-25T19:52:49.018Z,1004.29
2022-12-25T19:59:08.999Z,1004.35
2022-12-25T20:05:31.972Z,1004.39
2022-12-25T20:11:52.022Z,1004.48
2022-12-25T20:18:14.994Z,1004.54
2022-12-25T20:24:34.993Z,1004.56
2022-12-25T20:30:58.044Z,1004.5
2022-12-25T20:52:48.992Z,1004.48
2022-12-25T20:59:11.995Z,1004.56
2022-12-25T21:05:31.992Z,1004.58
2022-12-25T21:11:55.003Z,1004.52
2022-12-25T21:18:14.995Z,1004.52
2022-12-25T21:24:37.988Z,1004.6
2022-12-25T21:30:58.027Z,1004.62
2022-12-25T21:37:21.010Z,1004.76
2022-12-25T21:43:40.974Z,1004.9
2022-12-25T21:50:04.011Z,1004.94
2022-12-25T21:56:23.981Z,1004.97
2022-12-25T22:02:47.116Z,1004.99
2022-12-25T22:09:07.035Z,1004.99
2022-12-25T22:15:30.016Z,1005.01
2022-12-25T22:21:49.973Z,1005.05
2022-12-25T22:28:13.000Z,1005.15
2022-12-25T22:34:32.977Z,1005.21
2022-12-25T22:40:56.011Z,1005.21
2022-12-25T22:47:16.000Z,1005.25
2022-12-25T22:53:38.985Z,1005.25
2022-12-25T22:59:59.003Z,1005.25
2022-12-25T23:22:56.019Z,1005.36
2022-12-25T23:29:15.989Z,1005.34
2022-12-25T23:35:39.002Z,1005.33
2022-12-25T23:41:59.042Z,1005.34
2022-12-25T23:48:22.023Z,1005.34
2022-12-25T23:54:41.994Z,1005.31
